sensor_id;sensor_type;location;lat;lon;timestamp;temperature;humidity
26342;DHT22;14054;50.108;8.640;2022-10-16T00:01:05;15.60;99.90
26342;DHT22;14054;50.108;8.640;2022-10-16T00:03:30;15.60;99.90
26342;DHT22;14054;50.108;8.640;2022-10-16T00:05:58;15.60;99.90
26342;DHT22;14054;50.108;8.640;2022-10-16T00:08:24;15.60;99.90
26342;DHT22;14054;50.108;8.640;2022-10-16T00:10:49;15.60;99.90
26342;DHT22;14054;50.108;8.640;2022-10-16T00:13:15;15.60;99.90
26342;DHT22;14054;50.108;8.640;2022-10-16T00:15:42;15.60;99.90
26342;DHT22;14054;50.108;8.640;2022-10-16T00:18:09;15.60;99.90
26342;DHT22;14054;50.108;8.640;2022-10-16T00:20:35;15.60;99.90
26342;DHT22;14054;50.108;8.640;2022-10-16T00:23:02;15.60;99.90
26342;DHT22;14054;50.108;8.640;2022-10-16T00:25:28;15.60;99.90
26342;DHT22;14054;50.108;8.640;2022-10-16T00:27:54;15.70;99.90
26342;DHT22;14054;50.108;8.640;2022-10-16T00:30:19;15.70;99.90
26342;DHT22;14054;50.108;8.640;2022-10-16T00:32:44;15.70;99.90
26342;DHT22;14054;50.108;8.640;2022-10-16T00:35:10;15.60;99.90
26342;DHT22;14054;50.108;8.640;2022-10-16T00:37:35;15.70;99.90
26342;DHT22;14054;50.108;8.640;2022-10-16T00:40:01;15.70;99.90
26342;DHT22;14054;50.108;8.640;2022-10-16T00:42:26;15.70;99.90
26342;DHT22;14054;50.108;8.640;2022-10-16T00:44:56;15.70;99.90
26342;DHT22;14054;50.108;8.640;2022-10-16T00:47:32;15.70;99.90
26342;DHT22;14054;50.108;8.640;2022-10-16T00:50:05;15.70;99.90
26342;DHT22;14054;50.108;8.640;2022-10-16T00:52:31;15.70;99.90
26342;DHT22;14054;50.108;8.640;2022-10-16T00:54:57;15.70;99.90
26342;DHT22;14054;50.108;8.640;2022-10-16T00:57:23;15.70;99.90
26342;DHT22;14054;50.108;8.640;2022-10-16T00:59:49;15.70;99.90
26342;DHT22;14054;50.108;8.640;2022-10-16T01:02:15;15.70;99.90
26342;DHT22;14054;50.108;8.640;2022-10-16T01:04:48;15.70;99.90
26342;DHT22;14054;50.108;8.640;2022-10-16T01:07:20;15.70;99.90
26342;DHT22;14054;50.108;8.640;2022-10-16T01:10:14;15.70;99.90
26342;DHT22;14054;50.108;8.640;2022-10-16T01:15:08;15.70;99.90
26342;DHT22;14054;50.108;8.640;2022-10-16T01:17:43;15.70;99.90
26342;DHT22;14054;50.108;8.640;2022-10-16T01:20:12;15.70;99.90
26342;DHT22;14054;50.108;8.640;2022-10-16T01:25:13;15.70;99.90
26342;DHT22;14054;50.108;8.640;2022-10-16T01:27:41;15.70;99.90
26342;DHT22;14054;50.108;8.640;2022-10-16T01:32:42;15.70;99.90
26342;DHT22;14054;50.108;8.640;2022-10-16T01:35:18;15.70;99.90
26342;DHT22;14054;50.108;8.640;2022-10-16T01:37:55;15.70;99.90
26342;DHT22;14054;50.108;8.640;2022-10-16T01:40:23;15.70;99.90
26342;DHT22;14054;50.108;8.640;2022-10-16T01:42:50;15.70;99.90
26342;DHT22;14054;50.108;8.640;2022-10-16T01:45:18;15.70;99.90
26342;DHT22;14054;50.108;8.640;2022-10-16T01:47:44;15.60;99.90
26342;DHT22;14054;50.108;8.640;2022-10-16T01:50:10;15.60;99.90
26342;DHT22;14054;50.108;8.640;2022-10-16T01:52:39;15.60;99.90
26342;DHT22;14054;50.108;8.640;2022-10-16T01:55:05;15.60;99.90
26342;DHT22;14054;50.108;8.640;2022-10-16T01:57:31;15.60;99.90
26342;DHT22;14054;50.108;8.640;2022-10-16T01:59:58;15.60;99.90
26342;DHT22;14054;50.108;8.640;2022-10-16T02:02:27;15.60;99.90
26342;DHT22;14054;50.108;8.640;2022-10-16T02:05:14;15.60;99.90
26342;DHT22;14054;50.108;8.640;2022-10-16T02:07:41;15.60;99.90
26342;DHT22;14054;50.108;8.640;2022-10-16T02:10:07;15.50;99.90
26342;DHT22;14054;50.108;8.640;2022-10-16T02:12:33;15.50;99.90
26342;DHT22;14054;50.108;8.640;2022-10-16T02:15:00;15.50;99.90
26342;DHT22;14054;50.108;8.640;2022-10-16T02:17:25;15.50;99.90
26342;DHT22;14054;50.108;8.640;2022-10-16T02:19:52;15.50;99.90
26342;DHT22;14054;50.108;8.640;2022-10-16T02:22:24;15.50;99.90
26342;DHT22;14054;50.108;8.640;2022-10-16T02:24:57;15.50;99.90
26342;DHT22;14054;50.108;8.640;2022-10-16T02:27:27;15.50;99.90
26342;DHT22;14054;50.108;8.640;2022-10-16T02:29:57;15.40;99.90
26342;DHT22;14054;50.108;8.640;2022-10-16T02:32:27;15.40;99.90
26342;DHT22;14054;50.108;8.640;2022-10-16T02:34:55;15.40;99.90
26342;DHT22;14054;50.108;8.640;2022-10-16T02:37:21;15.40;99.90
26342;DHT22;14054;50.108;8.640;2022-10-16T02:39:47;15.40;99.90
26342;DHT22;14054;50.108;8.640;2022-10-16T02:42:12;15.40;99.90
26342;DHT22;14054;50.108;8.640;2022-10-16T02:44:38;15.40;99.90
26342;DHT22;14054;50.108;8.640;2022-10-16T02:47:04;15.40;99.90
26342;DHT22;14054;50.108;8.640;2022-10-16T02:49:29;15.40;99.90
26342;DHT22;14054;50.108;8.640;2022-10-16T02:51:54;15.40;99.90
26342;DHT22;14054;50.108;8.640;2022-10-16T02:54:20;15.40;99.90
26342;DHT22;14054;50.108;8.640;2022-10-16T02:56:45;15.40;99.90
26342;DHT22;14054;50.108;8.640;2022-10-16T02:59:10;15.40;99.90
26342;DHT22;14054;50.108;8.640;2022-10-16T03:01:36;15.40;99.90
26342;DHT22;14054;50.108;8.640;2022-10-16T03:04:01;15.30;99.90
26342;DHT22;14054;50.108;8.640;2022-10-16T03:06:27;15.30;99.90
26342;DHT22;14054;50.108;8.640;2022-10-16T03:08:52;15.30;99.90
26342;DHT22;14054;50.108;8.640;2022-10-16T03:11:18;15.30;99.90
26342;DHT22;14054;50.108;8.640;2022-10-16T03:13:43;15.30;99.90
26342;DHT22;14054;50.108;8.640;2022-10-16T03:16:08;15.30;99.90
26342;DHT22;14054;50.108;8.640;2022-10-16T03:18:34;15.30;99.90
26342;DHT22;14054;50.108;8.640;2022-10-16T03:20:59;15.30;99.90
26342;DHT22;14054;50.108;8.640;2022-10-16T03:23:25;15.30;99.90
26342;DHT22;14054;50.108;8.640;2022-10-16T03:25:50;15.30;99.90
26342;DHT22;14054;50.108;8.640;2022-10-16T03:28:16;15.20;99.90
26342;DHT22;14054;50.108;8.640;2022-10-16T03:30:42;15.30;99.90
26342;DHT22;14054;50.108;8.640;2022-10-16T03:33:07;15.30;99.90
26342;DHT22;14054;50.108;8.640;2022-10-16T03:35:33;15.30;99.90
26342;DHT22;14054;50.108;8.640;2022-10-16T03:37:58;15.30;99.90
26342;DHT22;14054;50.108;8.640;2022-10-16T03:40:24;15.30;99.90
26342;DHT22;14054;50.108;8.640;2022-10-16T03:42:49;15.30;99.90
26342;DHT22;14054;50.108;8.640;2022-10-16T03:45:15;15.30;99.90
26342;DHT22;14054;50.108;8.640;2022-10-16T03:47:40;15.30;99.90
26342;DHT22;14054;50.108;8.640;2022-10-16T03:50:06;15.30;99.90
26342;DHT22;14054;50.108;8.640;2022-10-16T03:52:31;15.30;99.90
26342;DHT22;14054;50.108;8.640;2022-10-16T03:54:58;15.30;99.90
26342;DHT22;14054;50.108;8.640;2022-10-16T03:57:23;15.30;99.90
26342;DHT22;14054;50.108;8.640;2022-10-16T03:59:49;15.30;99.90
26342;DHT22;14054;50.108;8.640;2022-10-16T04:02:14;15.30;99.90
26342;DHT22;14054;50.108;8.640;2022-10-16T04:04:39;15.30;99.90
26342;DHT22;14054;50.108;8.640;2022-10-16T04:07:05;15.30;99.90
26342;DHT22;14054;50.108;8.640;2022-10-16T04:09:30;15.30;99.90
26342;DHT22;14054;50.108;8.640;2022-10-16T04:11:56;15.30;99.90
26342;DHT22;14054;50.108;8.640;2022-10-16T04:14:21;15.30;99.90
26342;DHT22;14054;50.108;8.640;2022-10-16T04:16:47;15.30;99.90
26342;DHT22;14054;50.108;8.640;2022-10-16T04:19:12;15.30;99.90
26342;DHT22;14054;50.108;8.640;2022-10-16T04:21:38;15.30;99.90
26342;DHT22;14054;50.108;8.640;2022-10-16T04:24:03;15.30;99.90
26342;DHT22;14054;50.108;8.640;2022-10-16T04:26:29;15.30;99.90
26342;DHT22;14054;50.108;8.640;2022-10-16T04:28:55;15.30;99.90
26342;DHT22;14054;50.108;8.640;2022-10-16T04:31:20;15.30;99.90
26342;DHT22;14054;50.108;8.640;2022-10-16T04:33:46;15.30;99.90
26342;DHT22;14054;50.108;8.640;2022-10-16T04:36:11;15.30;99.90
26342;DHT22;14054;50.108;8.640;2022-10-16T04:38:37;15.30;99.90
26342;DHT22;14054;50.108;8.640;2022-10-16T04:41:05;15.40;99.90
26342;DHT22;14054;50.108;8.640;2022-10-16T04:43:30;15.40;99.90
26342;DHT22;14054;50.108;8.640;2022-10-16T04:45:55;15.40;99.90
26342;DHT22;14054;50.108;8.640;2022-10-16T04:48:21;15.30;99.90
26342;DHT22;14054;50.108;8.640;2022-10-16T04:50:47;15.40;99.90
26342;DHT22;14054;50.108;8.640;2022-10-16T04:53:12;15.40;99.90
26342;DHT22;14054;50.108;8.640;2022-10-16T04:55:38;15.40;99.90
26342;DHT22;14054;50.108;8.640;2022-10-16T04:58:03;15.40;99.90
26342;DHT22;14054;50.108;8.640;2022-10-16T05:00:29;15.40;99.90
26342;DHT22;14054;50.108;8.640;2022-10-16T05:02:54;15.40;99.90
26342;DHT22;14054;50.108;8.640;2022-10-16T05:05:20;15.40;99.90
26342;DHT22;14054;50.108;8.640;2022-10-16T05:07:45;15.40;99.90
26342;DHT22;14054;50.108;8.640;2022-10-16T05:10:11;15.50;99.90
26342;DHT22;14054;50.108;8.640;2022-10-16T05:12:36;15.50;99.90
26342;DHT22;14054;50.108;8.640;2022-10-16T05:15:02;15.50;99.90
26342;DHT22;14054;50.108;8.640;2022-10-16T05:17:27;15.50;99.90
26342;DHT22;14054;50.108;8.640;2022-10-16T05:19:53;15.50;99.90
26342;DHT22;14054;50.108;8.640;2022-10-16T05:22:18;15.50;99.90
26342;DHT22;14054;50.108;8.640;2022-10-16T05:24:44;15.50;99.90
26342;DHT22;14054;50.108;8.640;2022-10-16T05:27:09;15.50;99.90
26342;DHT22;14054;50.108;8.640;2022-10-16T05:29:35;15.50;99.90
26342;DHT22;14054;50.108;8.640;2022-10-16T05:32:00;15.50;99.90
26342;DHT22;14054;50.108;8.640;2022-10-16T05:34:25;15.50;99.90
26342;DHT22;14054;50.108;8.640;2022-10-16T05:36:51;15.50;99.90
26342;DHT22;14054;50.108;8.640;2022-10-16T05:39:16;15.50;99.90
26342;DHT22;14054;50.108;8.640;2022-10-16T05:41:42;15.40;99.90
26342;DHT22;14054;50.108;8.640;2022-10-16T05:44:08;15.40;99.90
26342;DHT22;14054;50.108;8.640;2022-10-16T05:46:33;15.40;99.90
26342;DHT22;14054;50.108;8.640;2022-10-16T05:48:59;15.40;99.90
26342;DHT22;14054;50.108;8.640;2022-10-16T05:51:24;15.40;99.90
26342;DHT22;14054;50.108;8.640;2022-10-16T05:53:50;15.40;99.90
26342;DHT22;14054;50.108;8.640;2022-10-16T05:56:15;15.40;99.90
26342;DHT22;14054;50.108;8.640;2022-10-16T05:58:41;15.50;99.90
26342;DHT22;14054;50.108;8.640;2022-10-16T06:01:11;15.50;99.90
26342;DHT22;14054;50.108;8.640;2022-10-16T06:03:36;15.50;99.90
26342;DHT22;14054;50.108;8.640;2022-10-16T06:06:09;15.50;99.90
26342;DHT22;14054;50.108;8.640;2022-10-16T06:08:35;15.50;99.90
26342;DHT22;14054;50.108;8.640;2022-10-16T06:11:10;15.50;99.90
26342;DHT22;14054;50.108;8.640;2022-10-16T06:13:36;15.50;99.90
26342;DHT22;14054;50.108;8.640;2022-10-16T06:16:02;15.50;99.90
26342;DHT22;14054;50.108;8.640;2022-10-16T06:18:28;15.50;99.90
26342;DHT22;14054;50.108;8.640;2022-10-16T06:20:55;15.50;99.90
26342;DHT22;14054;50.108;8.640;2022-10-16T06:23:20;15.50;99.90
26342;DHT22;14054;50.108;8.640;2022-10-16T06:25:46;15.50;99.90
26342;DHT22;14054;50.108;8.640;2022-10-16T06:28:13;15.50;99.90
26342;DHT22;14054;50.108;8.640;2022-10-16T06:30:38;15.50;99.90
26342;DHT22;14054;50.108;8.640;2022-10-16T06:33:04;15.60;99.90
26342;DHT22;14054;50.108;8.640;2022-10-16T06:35:29;15.60;99.90
26342;DHT22;14054;50.108;8.640;2022-10-16T06:37:57;15.60;99.90
26342;DHT22;14054;50.108;8.640;2022-10-16T06:40:22;15.60;99.90
26342;DHT22;14054;50.108;8.640;2022-10-16T06:42:48;15.60;99.90
26342;DHT22;14054;50.108;8.640;2022-10-16T06:45:13;15.70;99.90
26342;DHT22;14054;50.108;8.640;2022-10-16T06:47:38;15.60;99.90
26342;DHT22;14054;50.108;8.640;2022-10-16T06:50:04;15.70;99.90
26342;DHT22;14054;50.108;8.640;2022-10-16T06:52:31;15.70;99.90
26342;DHT22;14054;50.108;8.640;2022-10-16T06:54:57;15.70;99.90
26342;DHT22;14054;50.108;8.640;2022-10-16T06:57:22;15.70;99.90
26342;DHT22;14054;50.108;8.640;2022-10-16T06:59:48;15.70;99.90
26342;DHT22;14054;50.108;8.640;2022-10-16T07:02:13;15.70;99.90
26342;DHT22;14054;50.108;8.640;2022-10-16T07:04:38;15.70;99.90
26342;DHT22;14054;50.108;8.640;2022-10-16T07:07:04;15.80;99.90
26342;DHT22;14054;50.108;8.640;2022-10-16T07:09:29;15.80;99.90
26342;DHT22;14054;50.108;8.640;2022-10-16T07:11:55;15.90;99.90
26342;DHT22;14054;50.108;8.640;2022-10-16T07:14:21;15.90;99.90
26342;DHT22;14054;50.108;8.640;2022-10-16T07:16:47;15.90;99.90
26342;DHT22;14054;50.108;8.640;2022-10-16T07:19:13;15.90;99.90
26342;DHT22;14054;50.108;8.640;2022-10-16T07:21:40;15.90;99.90
26342;DHT22;14054;50.108;8.640;2022-10-16T07:24:07;15.90;99.90
26342;DHT22;14054;50.108;8.640;2022-10-16T07:26:35;16.00;99.90
26342;DHT22;14054;50.108;8.640;2022-10-16T07:29:01;16.00;99.90
26342;DHT22;14054;50.108;8.640;2022-10-16T07:31:27;16.00;99.90
26342;DHT22;14054;50.108;8.640;2022-10-16T07:33:52;16.00;99.90
26342;DHT22;14054;50.108;8.640;2022-10-16T07:36:18;15.90;99.90
26342;DHT22;14054;50.108;8.640;2022-10-16T07:38:44;16.00;99.90
26342;DHT22;14054;50.108;8.640;2022-10-16T07:41:13;16.00;99.90
26342;DHT22;14054;50.108;8.640;2022-10-16T07:43:39;16.00;99.90
26342;DHT22;14054;50.108;8.640;2022-10-16T07:46:04;16.10;99.90
26342;DHT22;14054;50.108;8.640;2022-10-16T07:48:31;16.10;99.90
26342;DHT22;14054;50.108;8.640;2022-10-16T07:51:04;16.10;99.90
26342;DHT22;14054;50.108;8.640;2022-10-16T07:53:30;16.10;99.90
26342;DHT22;14054;50.108;8.640;2022-10-16T07:55:59;16.10;99.90
26342;DHT22;14054;50.108;8.640;2022-10-16T07:58:25;16.20;99.90
26342;DHT22;14054;50.108;8.640;2022-10-16T08:00:51;16.30;99.90
26342;DHT22;14054;50.108;8.640;2022-10-16T08:03:16;16.30;99.90
26342;DHT22;14054;50.108;8.640;2022-10-16T08:05:41;16.30;99.90
26342;DHT22;14054;50.108;8.640;2022-10-16T08:08:10;16.40;99.90
26342;DHT22;14054;50.108;8.640;2022-10-16T08:10:36;16.40;99.90
26342;DHT22;14054;50.108;8.640;2022-10-16T08:13:02;16.40;99.90
26342;DHT22;14054;50.108;8.640;2022-10-16T08:15:27;16.30;99.90
26342;DHT22;14054;50.108;8.640;2022-10-16T08:17:57;16.40;99.90
26342;DHT22;14054;50.108;8.640;2022-10-16T08:20:22;16.40;99.90
26342;DHT22;14054;50.108;8.640;2022-10-16T08:22:48;16.30;99.90
26342;DHT22;14054;50.108;8.640;2022-10-16T08:25:13;16.30;99.90
26342;DHT22;14054;50.108;8.640;2022-10-16T08:27:39;16.30;99.90
26342;DHT22;14054;50.108;8.640;2022-10-16T08:30:04;16.30;99.90
26342;DHT22;14054;50.108;8.640;2022-10-16T08:32:30;16.20;99.90
26342;DHT22;14054;50.108;8.640;2022-10-16T08:34:55;16.20;99.90
26342;DHT22;14054;50.108;8.640;2022-10-16T08:37:21;16.20;99.90
26342;DHT22;14054;50.108;8.640;2022-10-16T08:39:46;16.20;99.90
26342;DHT22;14054;50.108;8.640;2022-10-16T08:50:07;16.30;99.90
26342;DHT22;14054;50.108;8.640;2022-10-16T08:52:34;16.30;99.90
26342;DHT22;14054;50.108;8.640;2022-10-16T08:55:00;16.20;99.90
26342;DHT22;14054;50.108;8.640;2022-10-16T08:57:26;16.30;99.90
26342;DHT22;14054;50.108;8.640;2022-10-16T08:59:52;16.20;99.90
26342;DHT22;14054;50.108;8.640;2022-10-16T09:07:16;16.00;99.90
26342;DHT22;14054;50.108;8.640;2022-10-16T09:10:05;16.00;99.90
26342;DHT22;14054;50.108;8.640;2022-10-16T09:12:33;15.90;99.90
26342;DHT22;14054;50.108;8.640;2022-10-16T09:15:18;15.90;99.90
26342;DHT22;14054;50.108;8.640;2022-10-16T09:20:13;16.00;99.90
26342;DHT22;14054;50.108;8.640;2022-10-16T09:22:43;16.00;99.90
26342;DHT22;14054;50.108;8.640;2022-10-16T09:25:20;16.00;99.90
26342;DHT22;14054;50.108;8.640;2022-10-16T09:27:46;15.90;99.90
26342;DHT22;14054;50.108;8.640;2022-10-16T09:30:13;16.00;99.90
26342;DHT22;14054;50.108;8.640;2022-10-16T09:32:39;16.00;99.90
26342;DHT22;14054;50.108;8.640;2022-10-16T09:35:09;16.00;99.90
26342;DHT22;14054;50.108;8.640;2022-10-16T09:37:36;16.00;99.90
26342;DHT22;14054;50.108;8.640;2022-10-16T09:40:01;16.10;99.90
26342;DHT22;14054;50.108;8.640;2022-10-16T09:42:30;16.00;99.90
26342;DHT22;14054;50.108;8.640;2022-10-16T09:44:56;16.00;99.90
26342;DHT22;14054;50.108;8.640;2022-10-16T09:47:26;16.00;99.90
26342;DHT22;14054;50.108;8.640;2022-10-16T09:49:56;16.00;99.90
26342;DHT22;14054;50.108;8.640;2022-10-16T09:52:24;16.00;99.90
26342;DHT22;14054;50.108;8.640;2022-10-16T09:54:51;16.20;99.90
26342;DHT22;14054;50.108;8.640;2022-10-16T09:57:16;16.50;99.90
26342;DHT22;14054;50.108;8.640;2022-10-16T09:59:49;16.60;99.90
26342;DHT22;14054;50.108;8.640;2022-10-16T10:02:15;16.50;99.90
26342;DHT22;14054;50.108;8.640;2022-10-16T10:04:42;16.40;99.90
26342;DHT22;14054;50.108;8.640;2022-10-16T10:07:43;16.30;99.90
26342;DHT22;14054;50.108;8.640;2022-10-16T10:10:03;16.40;99.90
26342;DHT22;14054;50.108;8.640;2022-10-16T10:12:28;16.50;99.90
26342;DHT22;14054;50.108;8.640;2022-10-16T10:14:56;16.60;99.90
26342;DHT22;14054;50.108;8.640;2022-10-16T10:17:23;16.60;99.90
26342;DHT22;14054;50.108;8.640;2022-10-16T10:19:58;16.80;99.90
26342;DHT22;14054;50.108;8.640;2022-10-16T10:22:27;16.90;99.90
26342;DHT22;14054;50.108;8.640;2022-10-16T10:30:05;17.10;99.90
26342;DHT22;14054;50.108;8.640;2022-10-16T10:32:43;17.20;99.90
26342;DHT22;14054;50.108;8.640;2022-10-16T10:35:13;17.20;99.90
26342;DHT22;14054;50.108;8.640;2022-10-16T10:43:15;17.60;99.90
26342;DHT22;14054;50.108;8.640;2022-10-16T10:45:47;17.90;99.90
26342;DHT22;14054;50.108;8.640;2022-10-16T10:48:31;18.00;99.90
26342;DHT22;14054;50.108;8.640;2022-10-16T10:56:14;19.40;99.90
26342;DHT22;14054;50.108;8.640;2022-10-16T11:01:16;19.80;99.90
26342;DHT22;14054;50.108;8.640;2022-10-16T11:06:30;19.80;99.90
26342;DHT22;14054;50.108;8.640;2022-10-16T11:09:20;20.60;99.90
26342;DHT22;14054;50.108;8.640;2022-10-16T11:11:47;21.00;99.90
26342;DHT22;14054;50.108;8.640;2022-10-16T11:14:17;20.70;99.90
26342;DHT22;14054;50.108;8.640;2022-10-16T11:16:54;20.70;99.90
26342;DHT22;14054;50.108;8.640;2022-10-16T11:19:25;20.30;99.90
26342;DHT22;14054;50.108;8.640;2022-10-16T11:22:36;19.80;99.90
26342;DHT22;14054;50.108;8.640;2022-10-16T11:24:44;19.40;99.90
26342;DHT22;14054;50.108;8.640;2022-10-16T11:27:12;19.10;99.90
26342;DHT22;14054;50.108;8.640;2022-10-16T11:29:51;18.70;99.90
26342;DHT22;14054;50.108;8.640;2022-10-16T11:32:24;18.70;99.90
26342;DHT22;14054;50.108;8.640;2022-10-16T11:35:00;18.50;99.90
26342;DHT22;14054;50.108;8.640;2022-10-16T11:37:30;18.50;99.90
26342;DHT22;14054;50.108;8.640;2022-10-16T11:39:58;18.40;99.90
26342;DHT22;14054;50.108;8.640;2022-10-16T11:42:29;18.50;99.90
26342;DHT22;14054;50.108;8.640;2022-10-16T11:45:11;18.50;99.90
26342;DHT22;14054;50.108;8.640;2022-10-16T11:47:41;18.40;99.90
26342;DHT22;14054;50.108;8.640;2022-10-16T11:50:12;18.70;99.90
26342;DHT22;14054;50.108;8.640;2022-10-16T11:52:40;19.00;99.90
26342;DHT22;14054;50.108;8.640;2022-10-16T11:57:49;20.50;99.90
26342;DHT22;14054;50.108;8.640;2022-10-16T12:00:33;24.50;99.90
26342;DHT22;14054;50.108;8.640;2022-10-16T12:05:52;25.30;99.90
26342;DHT22;14054;50.108;8.640;2022-10-16T12:08:19;27.50;99.90
26342;DHT22;14054;50.108;8.640;2022-10-16T12:10:45;29.60;99.90
26342;DHT22;14054;50.108;8.640;2022-10-16T12:13:27;29.30;99.90
26342;DHT22;14054;50.108;8.640;2022-10-16T12:16:03;30.20;97.60
26342;DHT22;14054;50.108;8.640;2022-10-16T12:18:29;28.90;98.60
26342;DHT22;14054;50.108;8.640;2022-10-16T12:20:57;29.00;99.90
26342;DHT22;14054;50.108;8.640;2022-10-16T12:23:26;28.50;99.90
26342;DHT22;14054;50.108;8.640;2022-10-16T12:25:55;29.40;99.30
26342;DHT22;14054;50.108;8.640;2022-10-16T12:28:21;27.50;99.90
26342;DHT22;14054;50.108;8.640;2022-10-16T12:30:54;25.30;99.90
26342;DHT22;14054;50.108;8.640;2022-10-16T12:34:03;23.80;99.90
26342;DHT22;14054;50.108;8.640;2022-10-16T12:36:30;23.30;99.90
26342;DHT22;14054;50.108;8.640;2022-10-16T12:38:55;22.60;99.90
26342;DHT22;14054;50.108;8.640;2022-10-16T12:41:38;22.40;99.90
26342;DHT22;14054;50.108;8.640;2022-10-16T12:44:05;22.00;99.90
26342;DHT22;14054;50.108;8.640;2022-10-16T12:49:05;21.30;99.90
26342;DHT22;14054;50.108;8.640;2022-10-16T12:56:43;21.30;99.90
26342;DHT22;14054;50.108;8.640;2022-10-16T12:59:14;23.90;99.90
26342;DHT22;14054;50.108;8.640;2022-10-16T13:02:05;24.10;99.90
26342;DHT22;14054;50.108;8.640;2022-10-16T13:04:55;23.60;99.90
26342;DHT22;14054;50.108;8.640;2022-10-16T13:15:22;22.50;99.90
26342;DHT22;14054;50.108;8.640;2022-10-16T13:18:00;21.90;99.90
26342;DHT22;14054;50.108;8.640;2022-10-16T13:25:35;21.20;99.90
26342;DHT22;14054;50.108;8.640;2022-10-16T13:28:05;20.90;99.90
26342;DHT22;14054;50.108;8.640;2022-10-16T13:30:33;20.80;99.90
26342;DHT22;14054;50.108;8.640;2022-10-16T13:33:01;20.60;99.90
26342;DHT22;14054;50.108;8.640;2022-10-16T13:35:28;20.70;99.90
26342;DHT22;14054;50.108;8.640;2022-10-16T13:40:31;21.70;99.90
26342;DHT22;14054;50.108;8.640;2022-10-16T13:42:59;21.80;99.90
26342;DHT22;14054;50.108;8.640;2022-10-16T13:45:25;22.00;99.90
26342;DHT22;14054;50.108;8.640;2022-10-16T13:48:01;22.00;99.90
26342;DHT22;14054;50.108;8.640;2022-10-16T13:50:26;21.60;99.90
26342;DHT22;14054;50.108;8.640;2022-10-16T13:52:52;21.20;99.90
26342;DHT22;14054;50.108;8.640;2022-10-16T13:55:27;21.10;99.90
26342;DHT22;14054;50.108;8.640;2022-10-16T13:57:53;20.80;99.90
26342;DHT22;14054;50.108;8.640;2022-10-16T14:00:29;20.70;99.90
26342;DHT22;14054;50.108;8.640;2022-10-16T14:02:57;20.50;99.90
26342;DHT22;14054;50.108;8.640;2022-10-16T14:05:23;20.30;99.90
26342;DHT22;14054;50.108;8.640;2022-10-16T14:07:49;20.20;99.90
26342;DHT22;14054;50.108;8.640;2022-10-16T14:10:26;20.10;99.90
26342;DHT22;14054;50.108;8.640;2022-10-16T14:12:59;20.10;99.90
26342;DHT22;14054;50.108;8.640;2022-10-16T14:15:25;19.90;99.90
26342;DHT22;14054;50.108;8.640;2022-10-16T14:17:51;19.90;99.90
26342;DHT22;14054;50.108;8.640;2022-10-16T14:20:17;19.80;99.90
26342;DHT22;14054;50.108;8.640;2022-10-16T14:22:43;19.80;99.90
26342;DHT22;14054;50.108;8.640;2022-10-16T14:25:20;19.60;99.90
26342;DHT22;14054;50.108;8.640;2022-10-16T14:28:13;19.60;99.90
26342;DHT22;14054;50.108;8.640;2022-10-16T14:30:48;19.60;99.90
26342;DHT22;14054;50.108;8.640;2022-10-16T14:33:23;19.60;99.90
26342;DHT22;14054;50.108;8.640;2022-10-16T14:38:33;19.70;99.90
26342;DHT22;14054;50.108;8.640;2022-10-16T14:40:59;19.80;99.90
26342;DHT22;14054;50.108;8.640;2022-10-16T14:43:32;19.80;99.90
26342;DHT22;14054;50.108;8.640;2022-10-16T14:45:58;19.70;99.90
26342;DHT22;14054;50.108;8.640;2022-10-16T14:48:23;19.70;99.90
26342;DHT22;14054;50.108;8.640;2022-10-16T14:50:49;19.70;99.90
26342;DHT22;14054;50.108;8.640;2022-10-16T14:53:15;19.80;99.90
26342;DHT22;14054;50.108;8.640;2022-10-16T14:55:41;19.70;99.90
26342;DHT22;14054;50.108;8.640;2022-10-16T14:58:12;19.70;99.90
26342;DHT22;14054;50.108;8.640;2022-10-16T15:00:38;19.60;99.90
26342;DHT22;14054;50.108;8.640;2022-10-16T15:03:04;19.60;99.90
26342;DHT22;14054;50.108;8.640;2022-10-16T15:05:29;19.60;99.90
26342;DHT22;14054;50.108;8.640;2022-10-16T15:08:00;19.60;99.90
26342;DHT22;14054;50.108;8.640;2022-10-16T15:10:27;19.50;99.90
26342;DHT22;14054;50.108;8.640;2022-10-16T15:12:52;19.50;99.90
26342;DHT22;14054;50.108;8.640;2022-10-16T15:17:56;19.60;99.90
26342;DHT22;14054;50.108;8.640;2022-10-16T15:20:23;19.60;99.90
26342;DHT22;14054;50.108;8.640;2022-10-16T15:22:48;19.60;99.90
26342;DHT22;14054;50.108;8.640;2022-10-16T15:25:19;19.60;99.90
26342;DHT22;14054;50.108;8.640;2022-10-16T15:27:50;19.60;99.90
26342;DHT22;14054;50.108;8.640;2022-10-16T15:30:15;19.60;99.90
26342;DHT22;14054;50.108;8.640;2022-10-16T15:32:41;19.60;99.90
26342;DHT22;14054;50.108;8.640;2022-10-16T15:35:09;19.50;99.90
26342;DHT22;14054;50.108;8.640;2022-10-16T15:37:35;19.50;99.90
26342;DHT22;14054;50.108;8.640;2022-10-16T15:40:00;19.40;99.90
26342;DHT22;14054;50.108;8.640;2022-10-16T15:42:26;19.50;99.90
26342;DHT22;14054;50.108;8.640;2022-10-16T15:44:51;19.40;99.90
26342;DHT22;14054;50.108;8.640;2022-10-16T15:47:17;19.40;99.90
26342;DHT22;14054;50.108;8.640;2022-10-16T15:49:42;19.30;99.90
26342;DHT22;14054;50.108;8.640;2022-10-16T15:52:07;19.30;99.90
26342;DHT22;14054;50.108;8.640;2022-10-16T15:54:33;19.20;99.90
26342;DHT22;14054;50.108;8.640;2022-10-16T15:56:58;19.20;99.90
26342;DHT22;14054;50.108;8.640;2022-10-16T15:59:24;19.20;99.90
26342;DHT22;14054;50.108;8.640;2022-10-16T16:01:49;19.10;99.90
26342;DHT22;14054;50.108;8.640;2022-10-16T16:04:14;19.10;99.90
26342;DHT22;14054;50.108;8.640;2022-10-16T16:06:41;19.10;99.90
26342;DHT22;14054;50.108;8.640;2022-10-16T16:09:13;19.10;99.90
26342;DHT22;14054;50.108;8.640;2022-10-16T16:11:39;19.10;99.90
26342;DHT22;14054;50.108;8.640;2022-10-16T16:14:05;19.00;99.90
26342;DHT22;14054;50.108;8.640;2022-10-16T16:16:30;19.00;99.90
26342;DHT22;14054;50.108;8.640;2022-10-16T16:18:57;19.00;99.90
26342;DHT22;14054;50.108;8.640;2022-10-16T16:21:22;18.90;99.90
26342;DHT22;14054;50.108;8.640;2022-10-16T16:23:49;18.90;99.90
26342;DHT22;14054;50.108;8.640;2022-10-16T16:26:16;18.90;99.90
26342;DHT22;14054;50.108;8.640;2022-10-16T16:28:46;18.90;99.90
26342;DHT22;14054;50.108;8.640;2022-10-16T16:31:12;18.80;99.90
26342;DHT22;14054;50.108;8.640;2022-10-16T16:33:37;18.80;99.90
26342;DHT22;14054;50.108;8.640;2022-10-16T16:36:04;18.70;99.90
26342;DHT22;14054;50.108;8.640;2022-10-16T16:38:31;18.70;99.90
26342;DHT22;14054;50.108;8.640;2022-10-16T16:40:57;18.70;99.90
26342;DHT22;14054;50.108;8.640;2022-10-16T16:43:23;18.70;99.90
26342;DHT22;14054;50.108;8.640;2022-10-16T16:45:49;18.60;99.90
26342;DHT22;14054;50.108;8.640;2022-10-16T16:48:14;18.60;99.90
26342;DHT22;14054;50.108;8.640;2022-10-16T16:50:39;18.60;99.90
26342;DHT22;14054;50.108;8.640;2022-10-16T16:53:05;18.50;99.90